Terminal Aerodrome Forecast
Issued by NWS

Home | Current Version | Previous Version | Text Only | Print | Product List | Glossary On
Versions: 1 2 3 4 5 6 7 8 9 10 11 12 13
000
FTUS44 KLIX 181100
TAFMCB
TAF
KMCB 181121Z 1812/1912 01004KT P6SM OVC018
     FM181500 36009KT P6SM BKN018
     FM190000 01008KT P6SM SCT090
     FM190200 02004KT P6SM SCT090=

USA.gov is the U.S. government's official web portal to all federal, state and local government web resources and services.